sensor_id;sensor_type;location;lat;lon;timestamp;P1;durP1;ratioP1;P2;durP2;ratioP2
5987;SDS011;3021;51.000;6.980;2024-03-02T00:00:00;4.20;;;1.85;;
5987;SDS011;3021;51.000;6.980;2024-03-02T00:02:34;2.70;;;2.00;;
5987;SDS011;3021;51.000;6.980;2024-03-02T00:05:04;3.45;;;2.05;;
5987;SDS011;3021;51.000;6.980;2024-03-02T00:07:30;2.60;;;1.90;;
5987;SDS011;3021;51.000;6.980;2024-03-02T00:09:56;2.33;;;1.90;;
5987;SDS011;3021;51.000;6.980;2024-03-02T00:12:22;5.28;;;2.03;;
5987;SDS011;3021;51.000;6.980;2024-03-02T00:14:47;2.05;;;1.70;;
5987;SDS011;3021;51.000;6.980;2024-03-02T00:17:15;3.10;;;1.92;;
5987;SDS011;3021;51.000;6.980;2024-03-02T00:19:46;4.13;;;2.20;;
5987;SDS011;3021;51.000;6.980;2024-03-02T00:22:17;3.30;;;2.05;;
5987;SDS011;3021;51.000;6.980;2024-03-02T00:24:43;4.00;;;2.20;;
5987;SDS011;3021;51.000;6.980;2024-03-02T00:27:08;5.47;;;2.20;;
5987;SDS011;3021;51.000;6.980;2024-03-02T00:29:39;4.05;;;1.85;;
5987;SDS011;3021;51.000;6.980;2024-03-02T00:32:09;3.97;;;2.13;;
5987;SDS011;3021;51.000;6.980;2024-03-02T00:34:41;2.80;;;2.03;;
5987;SDS011;3021;51.000;6.980;2024-03-02T00:37:06;2.63;;;1.75;;
5987;SDS011;3021;51.000;6.980;2024-03-02T00:39:32;3.97;;;2.05;;
5987;SDS011;3021;51.000;6.980;2024-03-02T00:41:57;3.08;;;1.95;;
5987;SDS011;3021;51.000;6.980;2024-03-02T00:44:24;5.13;;;2.03;;
5987;SDS011;3021;51.000;6.980;2024-03-02T00:46:51;2.75;;;1.92;;
5987;SDS011;3021;51.000;6.980;2024-03-02T00:49:18;2.33;;;1.70;;
5987;SDS011;3021;51.000;6.980;2024-03-02T00:51:47;2.97;;;1.90;;
5987;SDS011;3021;51.000;6.980;2024-03-02T00:54:14;3.72;;;2.00;;
5987;SDS011;3021;51.000;6.980;2024-03-02T00:56:40;2.95;;;1.83;;
5987;SDS011;3021;51.000;6.980;2024-03-02T00:59:06;2.35;;;1.77;;
5987;SDS011;3021;51.000;6.980;2024-03-02T01:01:33;1.63;;;1.50;;
5987;SDS011;3021;51.000;6.980;2024-03-02T01:03:59;2.80;;;1.92;;
5987;SDS011;3021;51.000;6.980;2024-03-02T01:06:24;5.25;;;1.85;;
5987;SDS011;3021;51.000;6.980;2024-03-02T01:08:49;3.05;;;1.70;;
5987;SDS011;3021;51.000;6.980;2024-03-02T01:11:16;2.30;;;1.70;;
5987;SDS011;3021;51.000;6.980;2024-03-02T01:13:42;2.85;;;1.85;;
5987;SDS011;3021;51.000;6.980;2024-03-02T01:16:08;4.70;;;2.38;;
5987;SDS011;3021;51.000;6.980;2024-03-02T01:18:33;4.60;;;1.90;;
5987;SDS011;3021;51.000;6.980;2024-03-02T01:20:58;2.85;;;1.88;;
5987;SDS011;3021;51.000;6.980;2024-03-02T01:23:24;4.95;;;1.90;;
5987;SDS011;3021;51.000;6.980;2024-03-02T01:25:50;3.53;;;1.85;;
5987;SDS011;3021;51.000;6.980;2024-03-02T01:28:16;3.38;;;1.80;;
5987;SDS011;3021;51.000;6.980;2024-03-02T01:30:42;4.70;;;2.05;;
5987;SDS011;3021;51.000;6.980;2024-03-02T01:33:08;2.08;;;1.50;;
5987;SDS011;3021;51.000;6.980;2024-03-02T01:35:33;2.65;;;1.85;;
5987;SDS011;3021;51.000;6.980;2024-03-02T01:37:59;3.00;;;1.65;;
5987;SDS011;3021;51.000;6.980;2024-03-02T01:40:25;2.17;;;1.33;;
5987;SDS011;3021;51.000;6.980;2024-03-02T01:42:53;2.30;;;1.40;;
5987;SDS011;3021;51.000;6.980;2024-03-02T01:45:23;4.05;;;1.77;;
5987;SDS011;3021;51.000;6.980;2024-03-02T01:47:48;4.32;;;1.83;;
5987;SDS011;3021;51.000;6.980;2024-03-02T01:50:14;3.15;;;1.85;;
5987;SDS011;3021;51.000;6.980;2024-03-02T01:52:41;4.30;;;1.48;;
5987;SDS011;3021;51.000;6.980;2024-03-02T01:55:07;3.05;;;1.50;;
5987;SDS011;3021;51.000;6.980;2024-03-02T01:57:33;2.08;;;1.63;;
5987;SDS011;3021;51.000;6.980;2024-03-02T01:59:59;3.70;;;1.55;;
5987;SDS011;3021;51.000;6.980;2024-03-02T02:02:25;2.25;;;1.42;;
5987;SDS011;3021;51.000;6.980;2024-03-02T02:04:51;3.63;;;1.73;;
5987;SDS011;3021;51.000;6.980;2024-03-02T02:07:16;4.00;;;1.90;;
5987;SDS011;3021;51.000;6.980;2024-03-02T02:09:42;2.47;;;1.60;;
5987;SDS011;3021;51.000;6.980;2024-03-02T02:12:07;6.25;;;2.00;;
5987;SDS011;3021;51.000;6.980;2024-03-02T02:14:33;4.15;;;1.80;;
5987;SDS011;3021;51.000;6.980;2024-03-02T02:16:59;3.42;;;1.83;;
5987;SDS011;3021;51.000;6.980;2024-03-02T02:19:24;2.40;;;1.70;;
5987;SDS011;3021;51.000;6.980;2024-03-02T02:21:50;2.83;;;1.60;;
5987;SDS011;3021;51.000;6.980;2024-03-02T02:24:15;3.67;;;1.58;;
5987;SDS011;3021;51.000;6.980;2024-03-02T02:26:40;3.08;;;1.67;;
5987;SDS011;3021;51.000;6.980;2024-03-02T02:29:06;5.47;;;1.70;;
5987;SDS011;3021;51.000;6.980;2024-03-02T02:31:37;3.50;;;1.77;;
5987;SDS011;3021;51.000;6.980;2024-03-02T02:34:04;2.28;;;1.50;;
5987;SDS011;3021;51.000;6.980;2024-03-02T02:36:29;2.88;;;1.80;;
5987;SDS011;3021;51.000;6.980;2024-03-02T02:38:55;2.97;;;1.73;;
5987;SDS011;3021;51.000;6.980;2024-03-02T02:41:20;3.10;;;1.77;;
5987;SDS011;3021;51.000;6.980;2024-03-02T02:43:45;3.10;;;1.60;;
5987;SDS011;3021;51.000;6.980;2024-03-02T02:46:11;2.88;;;1.60;;
5987;SDS011;3021;51.000;6.980;2024-03-02T02:48:36;3.42;;;1.55;;
5987;SDS011;3021;51.000;6.980;2024-03-02T02:51:01;2.50;;;1.70;;
5987;SDS011;3021;51.000;6.980;2024-03-02T02:53:27;3.03;;;1.50;;
5987;SDS011;3021;51.000;6.980;2024-03-02T02:55:52;3.08;;;1.52;;
5987;SDS011;3021;51.000;6.980;2024-03-02T02:58:17;2.72;;;1.65;;
5987;SDS011;3021;51.000;6.980;2024-03-02T03:00:43;3.90;;;1.42;;
5987;SDS011;3021;51.000;6.980;2024-03-02T03:03:08;2.20;;;1.50;;
5987;SDS011;3021;51.000;6.980;2024-03-02T03:05:33;4.20;;;1.80;;
5987;SDS011;3021;51.000;6.980;2024-03-02T03:07:59;2.25;;;1.73;;
5987;SDS011;3021;51.000;6.980;2024-03-02T03:10:24;2.13;;;1.63;;
5987;SDS011;3021;51.000;6.980;2024-03-02T03:12:51;2.22;;;1.70;;
5987;SDS011;3021;51.000;6.980;2024-03-02T03:15:17;2.05;;;1.58;;
5987;SDS011;3021;51.000;6.980;2024-03-02T03:17:42;1.80;;;1.30;;
5987;SDS011;3021;51.000;6.980;2024-03-02T03:20:08;5.05;;;1.65;;
5987;SDS011;3021;51.000;6.980;2024-03-02T03:22:37;2.33;;;1.67;;
5987;SDS011;3021;51.000;6.980;2024-03-02T03:25:03;2.80;;;1.58;;
5987;SDS011;3021;51.000;6.980;2024-03-02T03:27:29;2.25;;;1.52;;
5987;SDS011;3021;51.000;6.980;2024-03-02T03:29:54;2.15;;;1.70;;
5987;SDS011;3021;51.000;6.980;2024-03-02T03:32:20;2.55;;;1.65;;
5987;SDS011;3021;51.000;6.980;2024-03-02T03:34:45;2.75;;;1.65;;
5987;SDS011;3021;51.000;6.980;2024-03-02T03:37:10;1.88;;;1.33;;
5987;SDS011;3021;51.000;6.980;2024-03-02T03:39:36;4.47;;;1.50;;
5987;SDS011;3021;51.000;6.980;2024-03-02T03:42:01;3.72;;;1.80;;
5987;SDS011;3021;51.000;6.980;2024-03-02T03:44:27;2.38;;;1.83;;
5987;SDS011;3021;51.000;6.980;2024-03-02T03:46:52;2.78;;;1.63;;
5987;SDS011;3021;51.000;6.980;2024-03-02T03:49:18;5.68;;;1.77;;
5987;SDS011;3021;51.000;6.980;2024-03-02T03:51:43;3.25;;;2.00;;
5987;SDS011;3021;51.000;6.980;2024-03-02T03:54:08;3.13;;;1.73;;
5987;SDS011;3021;51.000;6.980;2024-03-02T03:56:36;5.20;;;2.08;;
5987;SDS011;3021;51.000;6.980;2024-03-02T03:59:01;4.93;;;1.70;;
5987;SDS011;3021;51.000;6.980;2024-03-02T04:01:27;2.65;;;1.77;;
5987;SDS011;3021;51.000;6.980;2024-03-02T04:03:52;3.42;;;1.70;;
5987;SDS011;3021;51.000;6.980;2024-03-02T04:06:17;2.30;;;1.73;;
5987;SDS011;3021;51.000;6.980;2024-03-02T04:08:43;2.33;;;1.55;;
5987;SDS011;3021;51.000;6.980;2024-03-02T04:11:08;6.20;;;2.15;;
5987;SDS011;3021;51.000;6.980;2024-03-02T04:13:33;3.67;;;1.80;;
5987;SDS011;3021;51.000;6.980;2024-03-02T04:15:58;4.90;;;1.83;;
5987;SDS011;3021;51.000;6.980;2024-03-02T04:18:24;5.60;;;2.03;;
5987;SDS011;3021;51.000;6.980;2024-03-02T04:20:49;4.30;;;1.80;;
5987;SDS011;3021;51.000;6.980;2024-03-02T04:23:15;2.17;;;1.60;;
5987;SDS011;3021;51.000;6.980;2024-03-02T04:25:40;1.90;;;1.42;;
5987;SDS011;3021;51.000;6.980;2024-03-02T04:28:05;2.08;;;1.58;;
5987;SDS011;3021;51.000;6.980;2024-03-02T04:30:31;3.42;;;1.70;;
5987;SDS011;3021;51.000;6.980;2024-03-02T04:32:56;2.92;;;1.85;;
5987;SDS011;3021;51.000;6.980;2024-03-02T04:35:21;2.65;;;1.88;;
5987;SDS011;3021;51.000;6.980;2024-03-02T04:37:47;4.78;;;2.40;;
5987;SDS011;3021;51.000;6.980;2024-03-02T04:40:12;2.13;;;1.83;;
5987;SDS011;3021;51.000;6.980;2024-03-02T04:42:38;1.80;;;1.52;;
5987;SDS011;3021;51.000;6.980;2024-03-02T04:45:03;4.15;;;1.60;;
5987;SDS011;3021;51.000;6.980;2024-03-02T04:47:29;3.10;;;1.63;;
5987;SDS011;3021;51.000;6.980;2024-03-02T04:49:54;3.95;;;1.85;;
5987;SDS011;3021;51.000;6.980;2024-03-02T04:52:19;4.65;;;2.00;;
5987;SDS011;3021;51.000;6.980;2024-03-02T04:54:44;2.53;;;1.85;;
5987;SDS011;3021;51.000;6.980;2024-03-02T04:57:29;2.63;;;1.65;;
5987;SDS011;3021;51.000;6.980;2024-03-02T04:59:54;3.20;;;1.77;;
5987;SDS011;3021;51.000;6.980;2024-03-02T05:02:19;3.58;;;1.92;;
5987;SDS011;3021;51.000;6.980;2024-03-02T05:04:45;2.70;;;2.03;;
5987;SDS011;3021;51.000;6.980;2024-03-02T05:07:10;4.15;;;1.75;;
5987;SDS011;3021;51.000;6.980;2024-03-02T05:09:35;4.72;;;2.13;;
5987;SDS011;3021;51.000;6.980;2024-03-02T05:12:01;4.80;;;1.90;;
5987;SDS011;3021;51.000;6.980;2024-03-02T05:14:45;3.90;;;1.77;;
5987;SDS011;3021;51.000;6.980;2024-03-02T05:17:10;3.38;;;1.80;;
5987;SDS011;3021;51.000;6.980;2024-03-02T05:19:36;2.65;;;1.65;;
5987;SDS011;3021;51.000;6.980;2024-03-02T05:22:01;3.83;;;2.17;;
5987;SDS011;3021;51.000;6.980;2024-03-02T05:24:28;4.90;;;2.10;;
5987;SDS011;3021;51.000;6.980;2024-03-02T05:26:53;5.28;;;2.20;;
5987;SDS011;3021;51.000;6.980;2024-03-02T05:29:19;5.95;;;1.90;;
5987;SDS011;3021;51.000;6.980;2024-03-02T05:31:44;2.67;;;1.70;;
5987;SDS011;3021;51.000;6.980;2024-03-02T05:34:09;3.28;;;1.92;;
5987;SDS011;3021;51.000;6.980;2024-03-02T05:36:35;2.65;;;1.85;;
5987;SDS011;3021;51.000;6.980;2024-03-02T05:39:00;3.20;;;1.90;;
5987;SDS011;3021;51.000;6.980;2024-03-02T05:41:26;2.53;;;1.75;;
5987;SDS011;3021;51.000;6.980;2024-03-02T05:43:51;5.80;;;2.47;;
5987;SDS011;3021;51.000;6.980;2024-03-02T05:46:17;2.30;;;1.98;;
5987;SDS011;3021;51.000;6.980;2024-03-02T05:48:42;2.60;;;2.05;;
5987;SDS011;3021;51.000;6.980;2024-03-02T05:51:07;3.67;;;2.10;;
5987;SDS011;3021;51.000;6.980;2024-03-02T05:53:32;5.65;;;1.98;;
5987;SDS011;3021;51.000;6.980;2024-03-02T05:55:58;3.08;;;2.00;;
5987;SDS011;3021;51.000;6.980;2024-03-02T05:58:24;4.25;;;2.00;;
5987;SDS011;3021;51.000;6.980;2024-03-02T06:00:49;4.75;;;2.35;;
5987;SDS011;3021;51.000;6.980;2024-03-02T06:03:14;2.92;;;2.30;;
5987;SDS011;3021;51.000;6.980;2024-03-02T06:05:40;3.90;;;2.65;;
5987;SDS011;3021;51.000;6.980;2024-03-02T06:08:05;4.45;;;2.63;;
5987;SDS011;3021;51.000;6.980;2024-03-02T06:10:32;3.28;;;2.15;;
5987;SDS011;3021;51.000;6.980;2024-03-02T06:12:57;4.80;;;2.28;;
5987;SDS011;3021;51.000;6.980;2024-03-02T06:15:24;3.67;;;2.42;;
5987;SDS011;3021;51.000;6.980;2024-03-02T06:17:49;4.10;;;2.88;;
5987;SDS011;3021;51.000;6.980;2024-03-02T06:20:14;5.50;;;2.50;;
5987;SDS011;3021;51.000;6.980;2024-03-02T06:22:40;3.47;;;2.25;;
5987;SDS011;3021;51.000;6.980;2024-03-02T06:25:05;3.60;;;2.20;;
5987;SDS011;3021;51.000;6.980;2024-03-02T06:27:31;5.40;;;2.58;;
5987;SDS011;3021;51.000;6.980;2024-03-02T06:29:56;4.00;;;2.45;;
5987;SDS011;3021;51.000;6.980;2024-03-02T06:32:21;4.55;;;2.40;;
5987;SDS011;3021;51.000;6.980;2024-03-02T06:34:48;6.25;;;2.40;;
5987;SDS011;3021;51.000;6.980;2024-03-02T06:37:13;4.82;;;2.40;;
5987;SDS011;3021;51.000;6.980;2024-03-02T06:39:40;5.15;;;2.80;;
5987;SDS011;3021;51.000;6.980;2024-03-02T06:42:05;5.30;;;2.80;;
5987;SDS011;3021;51.000;6.980;2024-03-02T06:44:30;5.47;;;2.72;;
5987;SDS011;3021;51.000;6.980;2024-03-02T06:46:56;8.02;;;2.92;;
5987;SDS011;3021;51.000;6.980;2024-03-02T06:49:21;3.80;;;2.72;;
5987;SDS011;3021;51.000;6.980;2024-03-02T06:51:46;5.43;;;2.78;;
5987;SDS011;3021;51.000;6.980;2024-03-02T06:54:12;5.45;;;2.65;;
5987;SDS011;3021;51.000;6.980;2024-03-02T06:56:40;4.68;;;3.03;;
5987;SDS011;3021;51.000;6.980;2024-03-02T06:59:05;4.38;;;2.50;;
5987;SDS011;3021;51.000;6.980;2024-03-02T07:01:31;5.40;;;2.50;;
5987;SDS011;3021;51.000;6.980;2024-03-02T07:03:56;7.72;;;3.00;;
5987;SDS011;3021;51.000;6.980;2024-03-02T07:06:21;5.65;;;3.00;;
5987;SDS011;3021;51.000;6.980;2024-03-02T07:08:47;5.57;;;2.75;;
5987;SDS011;3021;51.000;6.980;2024-03-02T07:11:12;4.72;;;2.65;;
5987;SDS011;3021;51.000;6.980;2024-03-02T07:13:37;7.05;;;2.88;;
5987;SDS011;3021;51.000;6.980;2024-03-02T07:16:03;4.55;;;2.65;;
5987;SDS011;3021;51.000;6.980;2024-03-02T07:18:31;4.05;;;2.88;;
5987;SDS011;3021;51.000;6.980;2024-03-02T07:20:58;4.40;;;3.17;;
5987;SDS011;3021;51.000;6.980;2024-03-02T07:23:25;3.60;;;2.90;;
5987;SDS011;3021;51.000;6.980;2024-03-02T07:25:52;3.38;;;2.72;;
5987;SDS011;3021;51.000;6.980;2024-03-02T07:28:21;6.20;;;4.03;;
5987;SDS011;3021;51.000;6.980;2024-03-02T07:30:54;5.80;;;3.00;;
5987;SDS011;3021;51.000;6.980;2024-03-02T07:33:31;3.40;;;2.60;;
5987;SDS011;3021;51.000;6.980;2024-03-02T07:35:57;5.68;;;2.97;;
5987;SDS011;3021;51.000;6.980;2024-03-02T07:38:24;6.25;;;3.00;;
5987;SDS011;3021;51.000;6.980;2024-03-02T07:40:50;4.95;;;3.00;;
5987;SDS011;3021;51.000;6.980;2024-03-02T07:43:16;5.10;;;3.08;;
5987;SDS011;3021;51.000;6.980;2024-03-02T07:45:42;5.53;;;2.80;;
5987;SDS011;3021;51.000;6.980;2024-03-02T07:48:08;5.22;;;3.28;;
5987;SDS011;3021;51.000;6.980;2024-03-02T07:50:33;5.70;;;2.90;;
5987;SDS011;3021;51.000;6.980;2024-03-02T07:53:00;4.95;;;2.83;;
5987;SDS011;3021;51.000;6.980;2024-03-02T07:55:26;4.20;;;2.90;;
5987;SDS011;3021;51.000;6.980;2024-03-02T07:57:51;4.68;;;2.70;;
5987;SDS011;3021;51.000;6.980;2024-03-02T08:00:17;3.60;;;2.50;;
5987;SDS011;3021;51.000;6.980;2024-03-02T08:02:42;3.92;;;2.45;;
5987;SDS011;3021;51.000;6.980;2024-03-02T08:05:08;3.95;;;2.90;;
5987;SDS011;3021;51.000;6.980;2024-03-02T08:07:33;3.53;;;2.50;;
5987;SDS011;3021;51.000;6.980;2024-03-02T08:09:59;5.72;;;2.97;;
5987;SDS011;3021;51.000;6.980;2024-03-02T08:12:24;17.00;;;3.22;;
5987;SDS011;3021;51.000;6.980;2024-03-02T08:14:50;10.55;;;2.92;;
5987;SDS011;3021;51.000;6.980;2024-03-02T08:17:15;6.13;;;3.10;;
5987;SDS011;3021;51.000;6.980;2024-03-02T08:19:41;9.15;;;2.90;;
5987;SDS011;3021;51.000;6.980;2024-03-02T08:22:06;4.20;;;2.72;;
5987;SDS011;3021;51.000;6.980;2024-03-02T08:24:32;4.30;;;2.65;;
5987;SDS011;3021;51.000;6.980;2024-03-02T08:26:58;3.17;;;2.40;;
5987;SDS011;3021;51.000;6.980;2024-03-02T08:29:24;3.35;;;2.17;;
5987;SDS011;3021;51.000;6.980;2024-03-02T08:31:50;5.10;;;2.58;;
5987;SDS011;3021;51.000;6.980;2024-03-02T08:34:15;6.32;;;2.70;;
5987;SDS011;3021;51.000;6.980;2024-03-02T08:36:41;6.50;;;3.05;;
5987;SDS011;3021;51.000;6.980;2024-03-02T08:39:07;5.70;;;2.47;;
5987;SDS011;3021;51.000;6.980;2024-03-02T08:41:40;4.05;;;2.45;;
5987;SDS011;3021;51.000;6.980;2024-03-02T08:44:12;5.30;;;2.67;;
5987;SDS011;3021;51.000;6.980;2024-03-02T08:46:39;3.85;;;2.50;;
5987;SDS011;3021;51.000;6.980;2024-03-02T08:49:05;4.53;;;2.60;;
5987;SDS011;3021;51.000;6.980;2024-03-02T08:51:31;3.42;;;2.40;;
5987;SDS011;3021;51.000;6.980;2024-03-02T08:53:56;5.18;;;2.45;;
5987;SDS011;3021;51.000;6.980;2024-03-02T08:56:23;4.55;;;2.20;;
5987;SDS011;3021;51.000;6.980;2024-03-02T08:58:49;4.05;;;2.38;;
5987;SDS011;3021;51.000;6.980;2024-03-02T09:01:14;3.05;;;1.92;;
5987;SDS011;3021;51.000;6.980;2024-03-02T09:03:41;4.03;;;1.88;;
5987;SDS011;3021;51.000;6.980;2024-03-02T09:06:09;5.80;;;2.00;;
5987;SDS011;3021;51.000;6.980;2024-03-02T09:08:35;5.38;;;2.05;;
5987;SDS011;3021;51.000;6.980;2024-03-02T09:11:01;2.88;;;1.40;;
5987;SDS011;3021;51.000;6.980;2024-03-02T09:13:27;3.70;;;1.75;;
5987;SDS011;3021;51.000;6.980;2024-03-02T09:15:53;3.88;;;1.90;;
5987;SDS011;3021;51.000;6.980;2024-03-02T09:18:18;3.70;;;1.90;;
5987;SDS011;3021;51.000;6.980;2024-03-02T09:20:43;3.05;;;1.65;;
5987;SDS011;3021;51.000;6.980;2024-03-02T09:23:09;3.30;;;1.92;;
5987;SDS011;3021;51.000;6.980;2024-03-02T09:25:34;3.75;;;1.85;;
5987;SDS011;3021;51.000;6.980;2024-03-02T09:27:59;2.38;;;1.83;;
5987;SDS011;3021;51.000;6.980;2024-03-02T09:30:25;3.30;;;1.40;;
5987;SDS011;3021;51.000;6.980;2024-03-02T09:32:50;2.67;;;1.60;;
5987;SDS011;3021;51.000;6.980;2024-03-02T09:35:15;2.78;;;1.60;;
5987;SDS011;3021;51.000;6.980;2024-03-02T09:37:41;2.55;;;1.52;;
5987;SDS011;3021;51.000;6.980;2024-03-02T09:40:06;2.28;;;1.42;;
5987;SDS011;3021;51.000;6.980;2024-03-02T09:42:32;4.57;;;1.50;;
5987;SDS011;3021;51.000;6.980;2024-03-02T09:44:57;3.85;;;1.60;;
5987;SDS011;3021;51.000;6.980;2024-03-02T09:47:23;3.45;;;1.98;;
5987;SDS011;3021;51.000;6.980;2024-03-02T09:49:48;2.42;;;1.40;;
5987;SDS011;3021;51.000;6.980;2024-03-02T09:52:14;3.67;;;1.77;;
5987;SDS011;3021;51.000;6.980;2024-03-02T09:54:41;4.05;;;2.10;;
5987;SDS011;3021;51.000;6.980;2024-03-02T09:57:06;4.55;;;1.90;;
5987;SDS011;3021;51.000;6.980;2024-03-02T09:59:32;6.57;;;1.70;;
5987;SDS011;3021;51.000;6.980;2024-03-02T10:04:27;6.25;;;1.75;;
5987;SDS011;3021;51.000;6.980;2024-03-02T10:09:38;2.80;;;1.60;;
5987;SDS011;3021;51.000;6.980;2024-03-02T10:12:04;3.40;;;1.63;;
5987;SDS011;3021;51.000;6.980;2024-03-02T10:14:30;4.47;;;1.65;;
5987;SDS011;3021;51.000;6.980;2024-03-02T10:16:55;4.10;;;1.95;;
5987;SDS011;3021;51.000;6.980;2024-03-02T10:19:27;6.32;;;2.58;;
5987;SDS011;3021;51.000;6.980;2024-03-02T10:21:57;3.95;;;1.88;;
5987;SDS011;3021;51.000;6.980;2024-03-02T10:24:23;3.45;;;1.90;;
5987;SDS011;3021;51.000;6.980;2024-03-02T10:26:48;2.75;;;1.50;;
5987;SDS011;3021;51.000;6.980;2024-03-02T10:29:14;3.75;;;1.60;;
5987;SDS011;3021;51.000;6.980;2024-03-02T10:31:41;2.85;;;1.35;;
5987;SDS011;3021;51.000;6.980;2024-03-02T10:34:08;2.92;;;1.40;;
5987;SDS011;3021;51.000;6.980;2024-03-02T10:36:34;3.58;;;1.70;;
5987;SDS011;3021;51.000;6.980;2024-03-02T10:39:04;1.67;;;1.38;;
5987;SDS011;3021;51.000;6.980;2024-03-02T10:41:33;3.50;;;1.75;;
5987;SDS011;3021;51.000;6.980;2024-03-02T10:44:01;2.38;;;1.27;;
5987;SDS011;3021;51.000;6.980;2024-03-02T10:46:28;2.33;;;1.25;;
5987;SDS011;3021;51.000;6.980;2024-03-02T10:48:55;5.63;;;1.40;;
5987;SDS011;3021;51.000;6.980;2024-03-02T10:51:24;3.55;;;1.80;;
5987;SDS011;3021;51.000;6.980;2024-03-02T10:53:50;1.92;;;1.23;;
5987;SDS011;3021;51.000;6.980;2024-03-02T10:56:17;2.50;;;1.50;;
5987;SDS011;3021;51.000;6.980;2024-03-02T10:58:49;2.80;;;1.52;;
5987;SDS011;3021;51.000;6.980;2024-03-02T11:01:16;3.17;;;1.70;;
5987;SDS011;3021;51.000;6.980;2024-03-02T11:03:43;3.85;;;1.50;;
5987;SDS011;3021;51.000;6.980;2024-03-02T11:06:09;4.38;;;1.60;;
5987;SDS011;3021;51.000;6.980;2024-03-02T11:08:38;3.78;;;1.63;;
5987;SDS011;3021;51.000;6.980;2024-03-02T11:11:11;2.85;;;1.60;;
5987;SDS011;3021;51.000;6.980;2024-03-02T11:13:40;3.80;;;1.73;;
5987;SDS011;3021;51.000;6.980;2024-03-02T11:16:13;2.58;;;1.75;;
5987;SDS011;3021;51.000;6.980;2024-03-02T11:18:59;3.58;;;1.70;;
5987;SDS011;3021;51.000;6.980;2024-03-02T11:21:25;3.78;;;1.83;;
5987;SDS011;3021;51.000;6.980;2024-03-02T11:23:51;2.72;;;1.60;;
5987;SDS011;3021;51.000;6.980;2024-03-02T11:26:19;4.68;;;1.95;;
5987;SDS011;3021;51.000;6.980;2024-03-02T11:28:46;2.67;;;1.67;;
5987;SDS011;3021;51.000;6.980;2024-03-02T11:31:12;2.67;;;1.63;;
5987;SDS011;3021;51.000;6.980;2024-03-02T11:33:37;3.33;;;1.55;;
5987;SDS011;3021;51.000;6.980;2024-03-02T11:36:03;2.47;;;1.25;;
5987;SDS011;3021;51.000;6.980;2024-03-02T11:38:30;7.43;;;1.77;;
5987;SDS011;3021;51.000;6.980;2024-03-02T11:40:58;4.00;;;1.60;;
5987;SDS011;3021;51.000;6.980;2024-03-02T11:43:25;3.10;;;1.58;;
5987;SDS011;3021;51.000;6.980;2024-03-02T11:45:56;3.88;;;1.80;;
5987;SDS011;3021;51.000;6.980;2024-03-02T11:48:23;2.03;;;1.50;;
5987;SDS011;3021;51.000;6.980;2024-03-02T11:50:50;4.95;;;1.70;;
5987;SDS011;3021;51.000;6.980;2024-03-02T11:53:15;2.35;;;1.30;;
5987;SDS011;3021;51.000;6.980;2024-03-02T11:55:42;3.45;;;1.48;;
5987;SDS011;3021;51.000;6.980;2024-03-02T11:58:11;1.60;;;1.23;;
5987;SDS011;3021;51.000;6.980;2024-03-02T12:00:37;6.55;;;1.77;;
5987;SDS011;3021;51.000;6.980;2024-03-02T12:03:06;3.50;;;1.60;;
5987;SDS011;3021;51.000;6.980;2024-03-02T12:05:33;4.13;;;1.90;;
5987;SDS011;3021;51.000;6.980;2024-03-02T12:08:00;3.45;;;1.67;;
5987;SDS011;3021;51.000;6.980;2024-03-02T12:10:27;2.63;;;1.42;;
5987;SDS011;3021;51.000;6.980;2024-03-02T12:12:59;2.90;;;1.38;;
5987;SDS011;3021;51.000;6.980;2024-03-02T12:15:29;2.53;;;1.40;;
5987;SDS011;3021;51.000;6.980;2024-03-02T12:17:56;1.88;;;1.38;;
5987;SDS011;3021;51.000;6.980;2024-03-02T12:20:23;3.30;;;1.52;;
5987;SDS011;3021;51.000;6.980;2024-03-02T12:22:53;5.55;;;1.42;;
5987;SDS011;3021;51.000;6.980;2024-03-02T12:25:19;3.22;;;1.30;;
5987;SDS011;3021;51.000;6.980;2024-03-02T12:27:52;5.57;;;1.50;;
5987;SDS011;3021;51.000;6.980;2024-03-02T12:30:19;1.30;;;1.20;;
5987;SDS011;3021;51.000;6.980;2024-03-02T12:32:45;2.20;;;1.60;;
5987;SDS011;3021;51.000;6.980;2024-03-02T12:35:11;1.95;;;1.48;;
5987;SDS011;3021;51.000;6.980;2024-03-02T12:37:46;2.97;;;1.65;;
5987;SDS011;3021;51.000;6.980;2024-03-02T12:40:13;2.92;;;1.40;;
5987;SDS011;3021;51.000;6.980;2024-03-02T12:42:40;4.22;;;1.65;;
5987;SDS011;3021;51.000;6.980;2024-03-02T12:45:07;1.10;;;1.00;;
5987;SDS011;3021;51.000;6.980;2024-03-02T12:47:33;3.67;;;1.65;;
5987;SDS011;3021;51.000;6.980;2024-03-02T12:50:03;2.58;;;1.20;;
5987;SDS011;3021;51.000;6.980;2024-03-02T12:52:29;3.05;;;1.25;;
5987;SDS011;3021;51.000;6.980;2024-03-02T12:54:55;1.90;;;1.08;;
5987;SDS011;3021;51.000;6.980;2024-03-02T12:57:33;2.72;;;1.05;;
5987;SDS011;3021;51.000;6.980;2024-03-02T12:59:59;1.58;;;1.15;;
5987;SDS011;3021;51.000;6.980;2024-03-02T13:02:29;1.38;;;1.15;;
5987;SDS011;3021;51.000;6.980;2024-03-02T13:04:56;2.35;;;1.10;;
5987;SDS011;3021;51.000;6.980;2024-03-02T13:07:26;3.38;;;1.20;;
5987;SDS011;3021;51.000;6.980;2024-03-02T13:09:52;2.83;;;1.30;;
5987;SDS011;3021;51.000;6.980;2024-03-02T13:12:20;3.10;;;1.30;;
5987;SDS011;3021;51.000;6.980;2024-03-02T13:14:52;2.42;;;1.40;;
5987;SDS011;3021;51.000;6.980;2024-03-02T13:17:18;8.50;;;1.73;;
5987;SDS011;3021;51.000;6.980;2024-03-02T13:19:51;3.63;;;1.40;;
5987;SDS011;3021;51.000;6.980;2024-03-02T13:22:18;2.83;;;1.52;;
5987;SDS011;3021;51.000;6.980;2024-03-02T13:24:43;1.98;;;1.35;;
5987;SDS011;3021;51.000;6.980;2024-03-02T13:27:08;2.53;;;1.42;;
5987;SDS011;3021;51.000;6.980;2024-03-02T13:29:34;2.65;;;1.20;;
5987;SDS011;3021;51.000;6.980;2024-03-02T13:31:59;2.53;;;1.35;;
5987;SDS011;3021;51.000;6.980;2024-03-02T13:34:24;1.70;;;1.20;;
5987;SDS011;3021;51.000;6.980;2024-03-02T13:36:50;2.85;;;1.60;;
5987;SDS011;3021;51.000;6.980;2024-03-02T13:39:15;2.38;;;1.40;;
5987;SDS011;3021;51.000;6.980;2024-03-02T13:41:41;4.18;;;1.40;;
5987;SDS011;3021;51.000;6.980;2024-03-02T13:44:06;1.92;;;1.42;;
5987;SDS011;3021;51.000;6.980;2024-03-02T13:46:32;2.03;;;1.10;;
5987;SDS011;3021;51.000;6.980;2024-03-02T13:48:57;2.53;;;1.20;;
5987;SDS011;3021;51.000;6.980;2024-03-02T13:51:23;2.83;;;1.20;;
5987;SDS011;3021;51.000;6.980;2024-03-02T13:53:50;1.63;;;1.25;;
5987;SDS011;3021;51.000;6.980;2024-03-02T13:56:15;1.48;;;1.02;;
5987;SDS011;3021;51.000;6.980;2024-03-02T13:58:42;2.25;;;1.00;;
5987;SDS011;3021;51.000;6.980;2024-03-02T14:01:08;4.25;;;1.40;;
5987;SDS011;3021;51.000;6.980;2024-03-02T14:03:34;2.67;;;1.25;;
5987;SDS011;3021;51.000;6.980;2024-03-02T14:05:59;2.38;;;1.10;;
5987;SDS011;3021;51.000;6.980;2024-03-02T14:08:25;1.80;;;1.10;;
5987;SDS011;3021;51.000;6.980;2024-03-02T14:10:50;1.08;;;0.80;;
5987;SDS011;3021;51.000;6.980;2024-03-02T14:13:16;1.98;;;1.23;;
5987;SDS011;3021;51.000;6.980;2024-03-02T14:15:41;1.85;;;1.20;;
5987;SDS011;3021;51.000;6.980;2024-03-02T14:18:07;1.92;;;1.42;;
5987;SDS011;3021;51.000;6.980;2024-03-02T14:20:35;1.90;;;1.33;;
5987;SDS011;3021;51.000;6.980;2024-03-02T14:23:00;1.98;;;1.20;;
5987;SDS011;3021;51.000;6.980;2024-03-02T14:25:27;1.95;;;1.10;;
5987;SDS011;3021;51.000;6.980;2024-03-02T14:27:56;2.45;;;1.10;;
5987;SDS011;3021;51.000;6.980;2024-03-02T14:30:22;3.78;;;1.40;;
5987;SDS011;3021;51.000;6.980;2024-03-02T14:32:48;4.25;;;1.40;;
5987;SDS011;3021;51.000;6.980;2024-03-02T14:35:13;2.72;;;1.80;;
5987;SDS011;3021;51.000;6.980;2024-03-02T14:37:38;5.80;;;1.50;;
5987;SDS011;3021;51.000;6.980;2024-03-02T14:40:04;2.50;;;1.50;;
5987;SDS011;3021;51.000;6.980;2024-03-02T14:42:31;2.53;;;1.30;;
5987;SDS011;3021;51.000;6.980;2024-03-02T14:44:57;1.60;;;1.10;;
5987;SDS011;3021;51.000;6.980;2024-03-02T14:47:22;1.77;;;0.90;;
5987;SDS011;3021;51.000;6.980;2024-03-02T14:49:48;3.38;;;1.20;;
5987;SDS011;3021;51.000;6.980;2024-03-02T14:52:13;3.35;;;1.27;;
5987;SDS011;3021;51.000;6.980;2024-03-02T14:54:39;1.40;;;0.95;;
5987;SDS011;3021;51.000;6.980;2024-03-02T14:57:04;1.88;;;1.20;;
5987;SDS011;3021;51.000;6.980;2024-03-02T14:59:30;1.88;;;1.20;;
5987;SDS011;3021;51.000;6.980;2024-03-02T15:01:55;4.68;;;1.42;;
5987;SDS011;3021;51.000;6.980;2024-03-02T15:04:22;2.08;;;1.10;;
5987;SDS011;3021;51.000;6.980;2024-03-02T15:06:47;1.35;;;1.20;;
5987;SDS011;3021;51.000;6.980;2024-03-02T15:09:13;1.88;;;1.30;;
5987;SDS011;3021;51.000;6.980;2024-03-02T15:11:38;1.95;;;1.40;;
5987;SDS011;3021;51.000;6.980;2024-03-02T15:14:04;3.28;;;1.02;;